Date,TemperatureHighF,TemperatureAvgF,TemperatureLowF,DewpointHighF,DewpointAvgF,DewpointLowF,HumidityHigh,HumidityAvg,HumidityLow,PressureMaxIn,PressureMinIn,WindSpeedMaxMPH,WindSpeedAvgMPH,GustSpeedMaxMPH,PrecipitationSumIn
2013-1-1,36,32,30,36,32,29,100,98,98,30.54,30.40,3,0,6,0.01
2013-1-2,44,35,31,40,34,31,99,97,82,30.41,30.23,3,0,4,0.01
2013-1-3,41,35,30,39,34,30,100,97,88,30.23,30.11,5,0,8,0.16
2013-1-4,43,40,38,43,40,37,100,98,97,30.33,30.16,6,0,9,0.20
2013-1-5,43,41,39,43,41,39,100,99,98,30.21,30.08,9,1,10,0.39
2013-1-6,41,40,38,40,39,37,99,98,98,30.15,29.99,10,2,12,0.76
2013-1-7,42,39,36,42,39,35,100,99,98,30.14,29.80,14,1,14,1.00
2013-1-8,46,39,36,46,39,36,100,99,99,30.16,29.62,12,1,15,1.40
2013-1-9,46,41,36,45,40,35,99,95,82,29.92,29.64,11,1,13,0.01
2013-1-10,40,36,31,36,33,24,97,90,73,30.17,29.92,12,1,14,0.02
2013-1-11,39,31,27,26,23,20,88,72,48,30.36,30.17,12,1,16,0.00
2013-1-12,36,28,24,27,24,22,92,85,60,30.48,30.35,5,0,8,0.00
2013-1-13,34,28,24,27,25,22,94,87,72,30.52,30.46,5,0,5,0.01
2013-1-14,33,32,28,32,30,25,97,94,87,30.61,30.49,1,0,2,0.03
2013-1-15,38,34,32,36,33,32,98,96,92,30.74,30.60,1,0,2,0.00
2013-1-16,38,34,31,33,31,29,95,91,82,30.72,30.56,3,0,4,0.00
2013-1-17,45,35,30,38,33,29,97,91,76,30.57,30.31,4,0,4,0.00
2013-1-18,42,35,31,39,34,30,98,95,86,30.37,30.28,4,0,4,0.01
2013-1-19,41,34,28,41,33,28,100,96,89,30.42,30.37,3,0,4,0.00
2013-1-20,41,34,29,40,33,29,98,97,93,30.43,30.30,4,0,5,0.01
2013-1-21,36,30,26,35,29,25,99,98,97,30.31,30.16,3,0,4,0.01
2013-1-22,37,33,28,37,32,28,99,98,94,30.17,29.93,3,0,5,0.01
2013-1-23,43,40,37,42,39,35,100,96,89,30.10,29.83,8,1,11,0.80
2013-1-24,43,40,38,41,39,37,99,96,90,30.20,30.03,8,1,11,0.38
2013-1-25,50,43,40,46,42,39,99,94,75,30.07,29.91,8,0,10,0.20
2013-1-26,42,40,36,41,38,36,98,95,87,30.03,29.87,7,0,9,0.13
2013-1-27,40,38,36,40,38,36,99,98,98,30.03,29.96,4,0,5,0.35
2013-1-28,39,38,37,38,37,36,98,96,95,30.04,29.97,9,2,13,0.17
2013-1-29,41,40,39,40,39,37,98,96,93,30.32,30.04,10,0,16,0.10
2013-1-30,42,41,40,42,41,39,100,99,98,30.38,30.31,3,0,4,0.06
2013-1-31,45,43,41,45,43,41,99,99,99,30.38,30.29,6,0,8,0.31
2013-2-1,48,43,40,46,43,39,100,98,91,30.45,30.34,4,0,5,0.01
2013-2-2,47,39,35,44,38,34,99,97,87,30.43,30.25,5,0,8,0.01
2013-2-3,42,40,38,42,40,38,100,98,98,30.32,30.18,5,0,9,0.13
2013-2-4,44,43,41,44,42,41,99,98,97,30.18,29.85,8,1,10,0.06
2013-2-5,45,43,41,44,42,40,98,97,95,29.87,29.77,11,2,15,0.36
2013-2-6,44,42,40,43,41,40,100,96,85,30.02,29.77,12,3,15,0.50
2013-2-7,47,42,34,41,38,33,96,87,72,30.21,29.76,17,3,23,0.03
2013-2-8,43,37,33,38,35,32,98,93,80,30.32,30.21,3,0,4,0.01
2013-2-9,42,40,36,40,37,34,98,91,79,30.37,30.28,4,0,5,0.00
2013-2-10,46,38,32,39,36,31,98,90,73,30.40,30.33,7,0,9,0.01
2013-2-11,42,41,39,41,40,38,100,96,94,30.35,30.32,3,0,4,0.07
2013-2-12,45,43,41,44,42,40,100,98,97,30.38,30.22,8,1,9,0.04
2013-2-13,48,43,40,43,41,37,98,92,76,30.49,30.24,9,1,11,0.00
2013-2-14,44,42,40,43,41,39,97,96,94,30.60,30.48,5,0,5,0.06
2013-2-15,52,42,37,44,40,36,99,92,72,30.60,30.18,5,0,6,0.01
2013-2-16,51,44,40,47,41,38,98,90,67,30.19,30.07,11,2,15,0.17
2013-2-17,45,41,38,40,38,36,96,89,77,30.23,30.13,8,0,9,0.00
2013-2-18,41,39,38,40,37,36,98,94,90,30.13,29.79,6,1,10,0.13
2013-2-19,48,41,35,40,36,33,95,85,59,30.00,29.78,12,1,12,0.01
2013-2-20,39,37,33,38,36,32,97,94,87,30.04,30.00,6,0,7,0.26
2013-2-21,42,40,38,41,39,37,98,97,96,30.03,29.96,11,2,16,0.39
2013-2-22,47,40,36,46,38,34,98,93,70,30.00,29.58,17,3,25,1.85
2013-2-23,48,41,36,40,36,32,100,85,56,30.33,29.81,20,2,21,0.01
2013-2-24,41,40,38,40,39,37,97,96,93,30.34,29.88,9,1,13,1.19
2013-2-25,48,41,35,41,37,32,97,86,55,30.26,29.78,26,5,26,0.44
2013-2-26,43,38,34,40,36,32,95,93,83,30.33,30.17,8,1,11,0.43
2013-2-27,43,39,35,42,38,34,100,96,92,30.33,30.18,9,1,11,0.07
2013-2-28,45,40,35,44,39,34,99,97,94,30.30,30.22,11,0,11,1.17
2013-3-1,50,49,44,50,48,44,99,99,98,30.27,30.24,13,4,15,1.89
2013-3-2,49,46,40,49,44,37,99,96,86,30.24,30.00,18,5,24,0.68
2013-3-3,49,40,33,39,35,32,97,84,59,30.33,30.13,12,2,18,0.00
2013-3-4,51,41,32,39,33,26,95,73,45,30.33,29.99,8,1,10,0.00
2013-3-5,46,42,38,40,33,23,95,73,45,30.00,29.79,13,1,16,0.08
2013-3-6,47,42,40,41,39,36,92,86,75,29.81,29.64,16,1,17,0.01
2013-3-7,47,42,37,43,40,36,97,93,83,30.13,29.89,8,1,10,0.08
2013-3-8,51,41,34,42,38,33,98,89,65,30.26,30.11,9,1,11,0.01
2013-3-9,54,42,35,42,38,34,98,84,52,30.50,30.26,10,1,10,0.01
2013-3-10,46,43,41,43,40,37,94,90,85,30.50,30.42,4,0,8,0.03
2013-3-11,50,44,41,42,40,38,100,86,65,30.45,30.15,8,1,9,0.25
2013-3-12,50,45,40,49,45,38,99,97,93,30.15,29.99,12,3,15,2.49
2013-3-13,50,49,48,49,49,48,99,99,98,30.17,30.03,12,3,16,1.43
2013-3-14,50,49,45,50,48,44,99,99,98,30.13,30.01,10,1,11,0.81
2013-3-15,52,48,45,51,47,44,99,98,96,30.21,30.11,7,0,7,0.22
2013-3-16,48,44,39,47,42,35,99,92,66,30.11,29.81,19,4,25,0.17
2013-3-17,48,41,35,36,33,28,92,73,49,30.13,29.89,20,4,21,0.00
2013-3-18,50,42,37,38,34,28,96,73,47,30.26,30.03,21,5,25,0.14
2013-3-19,48,41,35,41,35,29,95,79,58,30.25,29.58,11,1,14,0.35
2013-3-20,53,44,37,48,42,34,98,91,70,29.91,29.31,24,6,28,0.71
2013-3-21,48,40,34,37,32,26,96,75,44,30.17,29.91,13,2,23,0.00
2013-3-22,47,38,34,38,34,32,96,85,59,30.40,30.17,13,1,15,0.02
2013-3-23,50,40,34,34,32,29,92,76,46,30.42,30.33,9,1,12,0.00
2013-3-24,55,44,36,36,32,25,92,66,33,30.33,30.16,9,1,11,0.00
2013-3-25,57,47,40,40,34,28,82,63,37,30.16,29.98,11,2,12,0.00
2013-3-26,59,48,39,42,38,35,87,69,47,30.04,29.98,9,1,11,0.00
2013-3-27,61,49,41,44,40,38,89,74,49,30.02,29.96,10,1,11,0.00
2013-3-28,62,52,46,48,43,41,85,73,51,30.16,30.01,9,1,12,0.00
2013-3-29,62,52,44,49,45,41,91,77,56,30.27,30.15,11,1,13,0.00
2013-3-30,63,52,44,48,44,41,90,75,49,30.29,30.11,10,1,12,0.00
2013-3-31,68,55,43,48,42,38,88,64,34,30.11,29.92,10,1,11,0.00
2013-4-1,63,53,46,51,45,41,87,75,59,30.13,29.96,11,1,14,0.00
2013-4-2,54,51,48,48,45,44,87,80,72,30.21,30.13,10,1,12,0.00
2013-4-3,60,52,44,48,44,41,92,76,55,30.20,29.99,10,1,12,0.00
2013-4-4,54,51,48,52,48,43,97,87,73,29.99,29.59,15,1,20,0.91
2013-4-5,53,50,47,52,49,46,98,97,93,29.84,29.66,12,2,18,0.93
2013-4-6,56,48,43,47,44,36,96,86,51,29.87,29.65,19,3,22,0.34
2013-4-7,48,44,42,45,42,40,95,92,82,29.87,29.57,9,0,10,0.13
2013-4-8,57,48,43,47,43,41,96,85,62,30.26,29.87,10,1,10,0.00
2013-4-9,50,47,45,46,44,43,97,92,85,30.35,30.17,9,1,11,0.18
2013-4-10,58,50,45,50,45,40,98,87,51,30.18,29.86,23,4,35,1.43
2013-4-11,55,48,41,46,39,32,96,73,46,30.27,30.18,18,5,20,0.00
2013-4-12,44,41,38,41,38,36,98,89,77,30.18,29.62,16,1,24,0.88
2013-4-13,50,41,35,41,36,32,95,85,69,29.99,29.64,24,3,31,0.02
2013-4-14,52,44,37,40,38,35,96,81,56,30.01,29.93,13,1,13,0.00
2013-4-15,55,45,40,44,40,37,96,84,52,30.20,29.95,11,1,13,0.04
2013-4-16,58,48,39,40,34,25,90,61,29,30.40,30.21,14,2,14,0.00
2013-4-17,59,49,41,45,38,34,93,68,44,30.44,30.38,8,2,13,0.02
2013-4-18,47,45,43,46,44,43,98,97,93,30.44,30.19,9,1,10,1.02
2013-4-19,56,49,44,52,48,44,99,95,83,30.19,30.07,11,1,11,0.59
2013-4-20,56,50,46,49,45,43,98,84,66,30.23,30.13,15,4,20,0.02
2013-4-21,52,46,39,46,41,35,96,84,57,30.41,30.20,17,2,21,0.22
2013-4-22,60,47,36,38,32,17,89,60,19,30.57,30.41,12,2,13,0.00
2013-4-23,62,50,41,42,37,33,81,63,36,30.43,30.29,11,2,13,0.00
2013-4-24,65,54,43,47,40,37,85,63,38,30.34,30.07,11,2,13,0.00
2013-4-25,67,55,44,50,44,39,86,69,46,30.14,30.05,9,1,12,0.00
2013-4-26,61,54,46,50,45,39,86,71,46,30.25,30.13,10,1,12,0.00
2013-4-27,54,50,47,50,47,43,96,87,72,30.19,30.11,15,2,21,0.34
2013-4-28,56,48,41,46,42,35,96,81,52,30.19,29.89,14,2,20,0.19
2013-4-29,54,48,43,43,34,27,90,58,37,30.10,29.88,28,9,31,0.00
2013-4-30,56,46,36,39,34,27,89,63,35,30.45,30.10,15,2,15,0.00
2013-5-1,61,49,38,42,36,32,87,65,37,30.61,30.45,11,2,14,0.00
2013-5-2,60,52,44,49,42,36,86,70,42,30.58,30.41,16,1,16,0.00
2013-5-3,69,56,45,50,46,42,92,71,42,30.44,30.26,10,1,12,0.00
2013-5-4,76,64,49,52,44,38,84,52,27,30.29,30.03,16,2,19,0.00
2013-5-5,82,69,55,52,46,41,76,47,24,30.03,29.78,14,2,14,0.00
2013-5-6,81,69,57,52,48,45,72,50,29,29.87,29.76,10,1,11,0.00
2013-5-7,72,63,55,57,52,49,84,69,55,29.97,29.80,8,1,12,0.00
2013-5-8,69,59,52,57,52,49,92,80,64,30.14,29.97,11,1,11,0.00
2013-5-9,74,62,51,59,54,49,94,75,56,30.23,30.11,10,1,13,0.00
2013-5-10,76,64,53,59,55,51,93,73,51,30.21,30.12,9,1,10,0.00
2013-5-11,74,63,57,60,55,52,95,77,56,30.17,29.98,10,1,12,0.17
2013-5-12,64,59,56,61,58,55,97,95,85,30.07,29.99,9,2,13,0.75
2013-5-13,62,55,50,56,52,45,98,90,77,30.16,29.89,18,2,22,0.13
2013-5-14,65,54,47,50,44,36,94,71,38,30.23,30.14,13,2,13,0.01
2013-5-15,65,56,49,51,47,44,92,71,50,30.15,30.00,12,1,12,0.00
2013-5-16,66,57,51,55,51,48,96,81,59,30.03,29.89,11,2,12,0.03
2013-5-17,60,54,50,54,52,48,97,92,77,30.05,29.93,10,1,11,0.10
2013-5-18,60,54,52,56,52,48,97,92,69,30.22,30.05,10,1,13,0.14
2013-5-19,66,57,50,53,50,47,97,80,54,30.40,30.28,8,1,12,0.00
2013-5-20,66,56,48,53,49,46,100,78,59,30.36,29.90,11,2,17,0.00
2013-5-21,52,49,47,50,48,46,100,95,80,29.92,29.79,11,1,12,0.46
2013-5-22,60,52,46,50,47,44,98,83,57,29.97,29.85,12,2,15,0.19
2013-5-23,62,52,42,50,46,41,98,82,58,30.02,29.96,15,1,15,0.17
2013-5-24,65,54,44,49,46,43,96,77,51,30.03,29.99,11,2,15,0.00
2013-5-25,61,52,47,56,49,44,94,87,72,30.05,30.00,8,1,10,0.09
2013-5-26,64,55,48,53,50,47,95,85,63,30.00,29.95,11,1,14,0.01
2013-5-27,61,56,53,56,52,49,97,87,67,29.95,29.73,8,1,12,0.31
2013-5-28,56,53,51,55,52,50,98,97,93,29.89,29.75,12,2,14,1.03
2013-5-29,54,52,50,53,51,49,98,96,91,29.94,29.69,7,1,10,0.72
2013-5-30,60,52,48,53,49,47,98,91,71,30.25,29.94,9,1,11,0.03
2013-5-31,66,56,48,53,49,44,97,80,51,30.36,30.25,11,1,11,0.00
2013-6-1,66,57,51,52,49,32,91,77,49,30.26,30.08,9,1,11,0.00
2013-6-2,70,58,50,54,50,48,95,77,51,30.10,30.03,14,2,14,0.00
2013-6-3,70,60,51,56,51,48,93,74,51,30.12,30.07,12,2,14,0.00
2013-6-4,78,65,53,59,53,47,91,66,41,30.16,30.03,11,1,14,0.00
2013-6-5,73,65,58,60,54,49,80,70,58,30.09,30.03,12,2,13,0.00
2013-6-6,78,67,55,60,55,51,91,68,45,30.06,29.99,11,1,12,0.00
2013-6-7,68,60,54,56,53,46,95,78,63,30.13,29.98,7,1,11,0.08
2013-6-8,65,57,52,54,50,47,91,78,61,30.18,30.11,10,2,12,0.00
2013-6-9,67,58,52,57,52,47,94,82,55,30.11,30.03,11,1,12,0.05
2013-6-10,70,59,48,54,49,45,96,72,44,30.04,29.87,11,2,13,0.00
2013-6-11,67,57,54,50,48,45,84,72,52,30.09,29.90,12,2,15,0.00
2013-6-12,65,54,50,55,50,46,97,87,59,30.16,30.09,9,1,10,0.37
2013-6-13,69,58,48,53,50,45,96,76,46,30.18,30.14,12,2,15,0.00
2013-6-14,63,56,52,55,52,50,96,87,71,30.24,30.10,8,1,11,0.12
2013-6-15,74,61,49,57,52,48,96,75,44,30.10,29.94,9,1,10,0.00
2013-6-16,77,65,57,59,55,53,91,71,46,30.07,29.98,10,2,13,0.00
2013-6-17,76,66,60,58,54,50,82,67,43,30.07,29.90,11,2,12,0.00
2013-6-18,71,62,56,56,53,46,95,75,42,29.97,29.90,11,2,12,0.06
2013-6-19,65,59,54,59,54,50,95,85,68,29.97,29.88,8,1,9,0.02
2013-6-20,57,56,54,56,54,53,100,95,93,30.09,29.87,12,2,19,0.56
2013-6-21,64,57,52,58,54,51,97,90,74,30.18,30.09,8,1,10,0.02
2013-6-22,71,63,57,58,56,54,94,79,59,30.14,29.89,6,0,10,0.00
2013-6-23,70,63,55,63,57,52,96,82,66,29.89,29.62,7,0,12,0.04
2013-6-24,62,60,57,59,58,56,98,95,84,29.70,29.55,11,1,17,0.83
2013-6-25,69,60,56,61,57,55,97,89,68,29.84,29.68,13,1,20,0.20
2013-6-26,68,61,56,62,58,55,97,91,75,30.09,29.84,8,1,12,0.10
2013-6-27,65,62,59,63,60,57,97,93,87,30.24,30.05,5,0,9,0.12
2013-6-28,73,66,60,67,63,59,98,90,77,30.23,30.07,6,0,8,0.00
2013-6-29,82,72,63,68,64,61,95,78,55,30.11,30.00,9,1,11,0.00
2013-6-30,89,75,64,68,63,61,93,70,43,30.02,29.86,9,1,11,0.00
2013-7-1,90,76,67,68,64,59,87,68,38,29.99,29.90,9,1,12,0.00
2013-7-2,81,71,63,67,61,56,84,70,57,30.08,29.99,9,1,11,0.00
2013-7-3,78,67,57,62,56,49,89,71,38,30.14,30.03,10,2,13,0.00
2013-7-4,72,62,54,60,54,48,89,76,60,30.09,30.02,12,2,15,0.00
2013-7-5,76,65,55,60,55,52,90,73,44,30.03,29.93,12,2,14,0.00
2013-7-6,80,66,56,62,56,53,92,72,41,29.99,29.83,12,2,15,0.00
2013-7-7,78,67,60,62,58,55,88,73,50,29.94,29.87,10,2,13,0.00
2013-7-8,78,67,58,64,59,55,94,76,53,30.09,29.94,10,1,11,0.00
2013-7-9,85,70,60,65,60,57,92,72,47,30.12,29.98,10,1,12,0.00
2013-7-10,75,65,57,61,56,47,92,73,47,30.03,29.91,12,2,14,0.00
2013-7-11,71,61,54,53,50,46,85,68,46,30.06,29.93,11,2,14,0.00
2013-7-12,73,61,52,56,50,45,87,69,40,30.09,30.01,13,2,16,0.00
2013-7-13,74,63,52,58,52,47,88,68,41,30.21,30.09,12,2,16,0.00
2013-7-14,78,66,56,60,55,52,89,68,45,30.13,30.01,10,2,15,0.00
2013-7-15,80,68,57,56,51,46,83,57,32,30.09,29.93,13,2,16,0.00
2013-7-16,86,73,61,60,53,48,78,51,28,29.94,29.82,12,1,15,0.00
2013-7-17,78,70,62,63,59,53,83,68,53,30.18,29.86,12,2,16,0.00
2013-7-18,79,70,62,62,59,56,83,69,53,30.22,30.11,11,2,14,0.00
2013-7-19,81,69,60,65,60,57,91,74,54,30.16,30.03,12,2,13,0.00
2013-7-20,76,66,58,63,59,56,94,79,60,30.06,29.95,9,2,13,0.00
2013-7-21,78,66,56,64,58,53,92,76,58,29.97,29.90,9,2,13,0.00
2013-7-22,78,67,57,65,59,55,94,77,55,30.04,29.93,10,2,14,0.00
2013-7-23,84,71,60,65,59,56,92,69,40,30.08,29.97,11,2,13,0.00
2013-7-24,82,71,60,63,58,55,87,66,41,30.05,29.99,9,1,10,0.00
2013-7-25,83,70,58,63,58,53,90,68,45,30.09,30.01,11,1,12,0.00
2013-7-26,78,68,59,62,57,53,92,71,45,30.14,30.07,12,1,13,0.00
2013-7-27,76,65,57,60,56,50,92,72,48,30.14,30.00,10,1,10,0.00
2013-7-28,77,67,57,61,56,52,87,70,47,30.00,29.92,11,2,12,0.00
2013-7-29,78,66,57,63,58,55,91,75,55,30.00,29.93,10,2,15,0.00
2013-7-30,78,67,59,62,58,55,91,73,54,30.12,29.99,9,2,12,0.00
2013-7-31,78,67,60,65,59,56,91,76,60,30.11,29.99,9,1,12,0.00
2013-8-1,72,65,60,62,59,56,93,80,67,30.04,29.99,12,2,15,0.00
2013-8-2,63,60,58,59,57,56,95,90,84,30.15,30.04,13,2,14,0.12
2013-8-3,71,64,58,62,59,57,97,86,65,30.15,30.06,8,1,10,0.00
2013-8-4,79,69,60,65,61,58,94,78,58,30.08,29.95,10,1,12,0.00
2013-8-5,84,70,60,67,60,55,95,73,40,30.02,29.93,12,1,13,0.00
2013-8-6,83,70,59,63,59,55,91,69,43,30.00,29.92,10,1,11,0.00
2013-8-7,83,70,61,62,59,56,89,69,46,30.00,29.93,11,1,12,0.00
2013-8-8,83,70,59,66,60,56,89,73,51,30.02,29.92,11,1,13,0.00
2013-8-9,83,71,60,65,61,58,93,73,50,29.95,29.80,9,1,11,0.00
2013-8-10,79,70,63,64,61,57,85,72,57,29.99,29.85,13,1,15,0.00
2013-8-11,75,66,60,63,58,53,95,75,62,30.07,29.97,10,2,13,0.14
2013-8-12,78,67,61,61,59,56,86,74,53,30.08,30.00,10,1,12,0.00
2013-8-13,78,68,60,62,58,56,89,72,50,30.10,29.94,10,1,13,0.00
2013-8-14,77,67,60,68,60,55,95,79,54,29.96,29.91,7,0,10,0.12
2013-8-15,67,65,63,66,64,62,97,94,89,30.00,29.92,9,1,10,0.09
2013-8-16,78,69,61,66,62,58,98,81,53,30.03,29.96,8,1,9,0.01
2013-8-17,74,68,62,63,61,58,93,79,66,30.06,29.98,13,2,13,0.00
2013-8-18,71,64,60,62,59,56,93,84,67,30.13,30.05,7,1,9,0.00
2013-8-19,74,64,59,60,57,54,94,76,57,30.12,30.05,9,1,11,0.00
2013-8-20,75,64,55,59,53,46,92,71,41,30.18,30.09,11,2,15,0.00
2013-8-21,80,67,56,58,54,50,87,65,36,30.12,29.95,10,1,14,0.00
2013-8-22,83,71,60,61,56,54,83,62,37,29.96,29.79,9,1,10,0.00
2013-8-23,74,67,61,61,57,53,92,69,58,29.89,29.79,12,2,16,0.02
2013-8-24,73,63,58,60,58,55,97,83,60,29.92,29.87,11,1,12,0.08
2013-8-25,75,65,56,60,55,53,92,72,51,29.95,29.85,12,1,13,0.00
2013-8-26,72,65,60,64,57,53,91,77,60,29.94,29.84,10,1,12,0.03
2013-8-27,74,66,60,60,58,56,95,78,58,29.95,29.79,14,1,15,0.09
2013-8-28,76,66,60,66,62,60,98,89,68,29.92,29.83,8,0,10,0.21
2013-8-29,68,65,63,66,64,62,98,97,93,29.96,29.87,14,1,22,0.83
2013-8-30,70,63,59,64,60,56,98,91,70,30.18,29.95,9,1,11,0.07
2013-8-31,76,64,55,62,57,54,95,80,51,30.12,29.84,8,1,10,0.00
2013-9-1,80,67,58,63,59,56,95,77,51,29.89,29.79,9,1,10,0.00
2013-9-2,77,67,61,66,61,58,97,82,63,29.94,29.85,9,0,11,0.04
2013-9-3,68,63,60,65,61,59,98,93,83,30.05,29.94,7,1,11,0.20
2013-9-4,71,63,58,64,60,57,98,90,70,30.07,30.01,9,1,11,0.01
2013-9-5,66,62,59,63,61,58,98,96,89,30.06,29.92,8,1,12,0.87
2013-9-6,71,64,59,66,62,58,99,94,81,30.10,29.91,8,0,9,0.02
2013-9-7,73,66,61,64,62,60,98,88,67,30.10,30.03,11,2,12,0.01
2013-9-8,72,65,59,65,62,58,98,89,77,30.11,30.02,6,0,6,0.01
2013-9-9,75,65,58,65,61,57,97,85,66,30.08,29.99,11,1,12,0.00
2013-9-10,80,68,59,66,61,58,96,81,55,30.02,29.92,7,0,8,0.01
2013-9-11,88,73,63,64,60,54,90,68,35,29.98,29.89,7,1,10,0.00
2013-9-12,84,73,64,66,62,58,86,70,47,29.99,29.88,9,1,10,0.00
2013-9-13,72,65,59,64,60,57,95,85,73,29.96,29.85,8,1,10,0.00
2013-9-14,69,62,59,64,60,58,98,94,81,29.90,29.76,7,1,8,0.00
2013-9-15,64,60,58,63,59,57,99,97,94,29.80,29.70,11,1,17,0.28
2013-9-16,62,60,57,60,58,56,99,96,91,29.91,29.77,13,2,13,0.96
2013-9-17,64,58,54,59,56,52,97,91,73,29.91,29.83,8,0,9,0.00
2013-9-18,67,58,54,57,53,51,96,85,59,30.08,29.91,8,1,11,0.00
2013-9-19,76,62,54,56,52,43,91,73,32,30.07,29.75,8,0,11,0.00
2013-9-20,71,61,54,58,53,50,96,77,52,29.76,29.58,5,0,8,0.17
2013-9-21,67,59,56,58,55,53,98,89,66,29.72,29.63,7,1,10,0.06
2013-9-22,57,55,53,56,54,52,98,96,93,29.67,29.51,15,3,22,1.22
2013-9-23,63,54,49,54,51,46,97,90,56,29.95,29.67,9,2,12,0.18
2013-9-24,59,52,49,52,49,47,97,89,71,29.95,29.85,6,0,9,0.01
2013-9-25,63,53,45,52,48,44,97,86,66,30.03,29.88,10,1,12,0.00
2013-9-26,65,54,46,52,47,42,95,81,46,30.13,30.03,9,1,12,0.00
2013-9-27,53,51,48,51,50,47,97,95,87,30.11,29.82,11,1,14,0.31
2013-9-28,55,52,50,54,51,49,98,97,91,29.83,29.28,19,4,22,1.24
2013-9-29,53,51,49,52,50,48,98,97,95,29.49,29.12,15,5,23,1.02
2013-9-30,56,50,48,52,48,46,98,92,85,29.87,29.28,21,6,26,0.20
2013-10-1,53,48,45,50,47,44,100,94,87,30.10,29.87,8,1,9,0.61
2013-10-2,49,46,44,48,46,43,98,97,96,30.20,30.08,11,1,13,0.39
2013-10-3,57,47,41,50,45,41,99,93,76,30.48,30.20,8,0,8,0.02
2013-10-4,57,50,43,52,47,43,98,90,73,30.51,30.37,5,0,8,0.01
2013-10-5,64,56,51,54,51,47,95,85,68,30.38,30.15,9,1,13,0.00
2013-10-6,74,58,51,58,52,47,100,82,42,30.15,29.81,11,1,12,0.01
2013-10-7,58,54,51,53,50,46,97,89,66,29.93,29.83,11,2,15,0.19
2013-10-8,59,50,45,50,45,43,95,83,61,30.12,29.92,15,2,24,0.00
2013-10-9,60,49,42,47,44,40,94,82,57,30.15,29.97,8,0,10,0.00
2013-10-10,57,50,45,49,46,43,94,84,67,30.08,29.94,8,1,13,0.00
2013-10-11,53,48,43,48,45,42,97,90,79,30.17,30.08,5,0,6,0.00
2013-10-12,57,49,44,49,46,43,96,89,69,30.24,30.09,9,1,12,0.00
2013-10-13,59,49,43,49,44,41,95,85,66,30.39,30.23,9,1,10,0.00
2013-10-14,60,50,43,49,45,41,96,84,61,30.45,30.38,8,0,8,0.00
2013-10-15,58,50,46,51,47,44,97,89,73,30.41,30.20,7,0,9,0.00
2013-10-16,62,51,44,52,48,43,98,88,69,30.22,30.16,7,1,8,0.01
2013-10-17,60,49,42,52,47,41,98,92,73,30.30,30.22,6,0,7,0.01
2013-10-18,57,46,41,51,44,40,99,94,78,30.28,30.17,6,0,7,0.01
2013-10-19,49,46,42,49,45,41,99,98,97,30.23,30.18,4,0,6,0.01
2013-10-20,51,48,46,49,47,45,99,97,93,30.24,30.17,3,0,4,0.00
2013-10-21,55,48,45,53,47,45,99,97,89,30.20,30.12,4,0,5,0.01
2013-10-22,60,48,42,55,47,41,100,95,76,30.16,30.05,4,0,4,0.01
2013-10-23,65,53,45,55,50,44,99,89,66,30.08,29.99,4,0,6,0.01
2013-10-24,62,52,44,54,48,43,96,89,68,30.12,30.03,4,0,8,0.01
2013-10-25,51,47,42,49,46,42,99,96,91,30.35,30.12,5,0,7,0.01
2013-10-26,56,50,46,49,47,44,96,90,75,30.37,30.17,8,1,10,0.00
2013-10-27,60,51,46,52,47,35,98,86,55,30.17,29.96,8,1,12,0.16
2013-10-28,59,49,42,40,36,30,79,62,39,30.08,29.96,7,1,11,0.00
2013-10-29,57,46,40,40,36,33,84,69,43,30.04,29.98,6,0,9,0.00
2013-10-30,54,47,41,47,41,37,97,81,59,30.13,30.03,9,1,10,0.18
2013-10-31,49,48,46,49,48,46,99,98,97,30.26,30.09,4,0,6,0.22
2013-11-1,52,50,49,51,49,48,99,98,95,30.27,29.83,10,1,13,0.46
2013-11-2,50,45,41,49,44,40,98,97,96,29.86,29.41,14,1,19,1.52
2013-11-3,49,40,35,43,37,34,99,92,63,30.14,29.86,6,0,8,0.01
2013-11-4,46,39,32,38,35,31,97,85,66,30.22,30.10,4,0,7,0.01
2013-11-5,42,41,38,42,40,36,100,97,83,30.28,30.06,5,0,15,0.11
2013-11-6,49,44,41,45,42,39,98,91,75,30.35,30.03,9,0,16,0.13
2013-11-7,49,47,44,49,46,42,98,97,93,30.03,29.67,14,2,18,0.80
2013-11-8,52,46,44,48,45,43,98,96,79,30.17,29.92,8,0,11,0.10
2013-11-9,48,46,43,47,44,42,98,96,93,30.17,30.11,5,0,9,0.07
2013-11-10,48,45,41,45,42,40,100,91,76,30.21,30.15,8,0,9,0.01
2013-11-11,54,48,44,46,42,38,91,82,66,30.20,30.02,5,0,8,0.00
2013-11-12,55,51,48,53,49,45,96,93,86,30.32,29.99,14,2,16,0.29
2013-11-13,56,50,47,51,48,46,98,92,80,30.41,30.30,8,1,12,0.05
2013-11-14,51,46,41,49,44,39,97,93,82,30.30,30.04,10,1,12,0.06
2013-11-15,44,42,39,43,41,38,98,96,89,30.04,29.26,14,2,23,1.26
2013-11-16,43,39,35,43,38,35,99,95,84,29.73,29.29,5,0,7,0.02
2013-11-17,49,43,36,46,41,35,97,92,84,29.88,29.73,15,2,18,0.09
2013-11-18,45,44,42,44,43,41,97,96,95,29.88,29.56,12,1,18,0.50
2013-11-19,42,39,31,41,32,21,97,79,45,30.11,29.56,23,4,31,0.01
2013-11-20,40,32,29,30,28,26,93,86,64,30.56,30.11,7,0,8,0.00
2013-11-21,41,32,28,30,28,26,93,85,63,30.71,30.56,5,0,6,0.00
2013-11-22,44,35,30,34,30,27,92,85,64,30.71,30.49,4,0,6,0.00
2013-11-23,47,38,33,38,35,31,100,88,71,30.49,30.24,4,0,4,0.00
2013-11-24,50,41,36,41,38,35,100,88,70,30.28,30.21,3,0,4,0.00
2013-11-25,54,44,39,44,39,36,92,84,65,30.33,30.28,6,0,7,0.00
2013-11-26,50,43,37,42,37,34,92,81,64,30.29,30.13,4,0,6,0.00
2013-11-27,52,47,42,43,40,37,87,78,68,30.13,29.99,5,0,6,0.00
2013-11-28,51,46,41,46,43,40,95,90,83,30.19,30.04,3,0,5,0.00
2013-11-29,47,46,45,46,44,43,96,93,87,30.31,30.19,10,1,11,0.28
2013-11-30,46,44,43,45,44,42,98,98,96,30.33,30.05,6,0,9,0.95
2013-12-1,49,46,39,49,44,35,99,94,75,30.05,29.69,25,2,25,0.72
2013-12-2,44,38,33,36,33,23,89,82,65,30.16,29.73,19,2,23,0.00
2013-12-3,41,33,28,28,23,18,85,68,50,30.37,30.16,11,1,17,0.00
2013-12-4,37,30,26,24,20,13,89,71,41,30.41,30.36,6,0,8,0.00
2013-12-5,35,28,24,21,18,13,82,68,41,30.36,30.24,6,0,8,0.00
2013-12-6,34,26,21,19,6,-2,80,43,24,30.37,30.25,11,1,14,0.00
2013-12-7,30,22,18,17,7,-2,76,52,29,30.44,30.36,6,1,10,0.00
2013-12-8,32,25,22,18,14,8,76,62,52,30.59,30.44,5,0,7,0.00
2013-12-9,30,28,25,28,25,17,94,86,67,30.59,30.50,3,0,7,0.07
2013-12-10,33,32,30,32,31,28,97,95,94,30.51,30.45,2,0,5,0.02
2013-12-11,37,34,33,36,33,32,97,97,96,30.46,30.18,3,0,3,0.00
2013-12-12,40,37,33,38,36,32,98,96,90,30.18,30.04,10,1,13,0.45
2013-12-13,42,40,38,42,40,38,99,98,97,30.45,30.14,2,0,4,0.23
2013-12-14,45,44,42,44,43,42,99,99,98,30.45,30.31,9,1,10,0.04
2013-12-15,48,44,40,47,44,40,99,98,98,30.43,30.29,7,1,9,0.09
2013-12-16,44,41,37,44,40,36,100,98,96,30.51,30.29,4,0,7,0.01
2013-12-17,42,40,37,41,39,36,100,98,98,30.29,30.08,7,0,9,0.03
2013-12-18,44,39,32,42,34,27,98,84,67,30.28,30.01,18,4,22,0.00
2013-12-19,34,32,30,29,26,22,89,79,69,30.38,30.22,10,0,12,0.00
2013-12-20,34,32,31,33,31,28,96,95,89,30.22,29.74,6,0,7,0.30
2013-12-21,37,35,33,36,34,32,98,97,96,30.20,29.90,2,0,3,0.04
2013-12-22,41,38,35,41,37,34,99,98,98,30.32,30.19,2,0,3,0.46
2013-12-23,48,44,37,46,42,36,99,94,80,30.49,30.07,18,3,24,0.43
2013-12-24,43,40,36,42,39,35,98,97,92,30.62,30.49,3,0,4,0.01
2013-12-25,40,37,33,39,36,32,98,97,95,30.57,30.42,4,0,4,0.05
2013-12-26,46,42,39,45,41,38,98,97,96,30.43,30.22,5,0,6,0.17
2013-12-27,46,42,40,45,41,39,100,98,96,30.35,30.06,14,1,16,0.29
2013-12-28,44,42,39,44,41,38,99,98,97,30.54,30.35,3,0,4,0.01
2013-12-29,41,40,38,41,40,38,99,98,98,30.49,30.34,5,0,6,0.06
2013-12-30,45,42,40,44,42,39,100,99,98,30.34,30.12,8,0,8,0.02
2013-12-31,45,43,41,44,43,41,99,98,98,30.41,30.18,3,0,4,0.09
2014-1-1,45,42,39,44,41,39,99,97,93,30.44,30.27,8,0,12,0.03
2014-1-2,44,43,40,44,42,38,99,97,89,30.27,29.83,20,2,32,1.66